Pagrindinis puslapis
METAR-TAF:

METAR-TAF

Oro uostai :

Mursija, Corvera, Ispanija

platuma: 37-48-13N, ilguma: 1-07-27W, Aukštis: 193 m

Dabartinis oras

Ataskaita buvo paskelbta 36 minutes, ne 11:30 UTC
Vėjas 5 kt iš Šiaurės, svyruoja nuo Šiaurės Vakarų ir Šiaurės/Šiaurės Rytų
Temperatūra 14°C
Drėgmė 77%
Slėgis 1019 hPa
Matomumas 10 km arba daugiau
Mažai debesys ne aukštis 2000 ft

METAR: LEMI 251130Z 35005KT 320V030 9999 FEW020 14/10 Q1019

Laikas: 13:06 (12:06 UTC)


TAF: trūkstamas

Orai ataskaitas ir orų prognozės (METAR, TAF).

turimą stotys yra geltonos ir raudonos taškus žemėlapyje.

Perkelti pele per norėdami pamatyti stoties vardą.

Tada spustelėkite, norėdami matyti oro stebėjimo ir prognozės.

Norėdami pakeisti žemėlapį: spustelėkite ant žalios mygtukų su juodo kryžiaus žemyn,; žalią mygtuką su brūkšneliu, jei norite nutolinti; arba žalių rodyklių gretimoms žemėlapius.


METAR-TAF: